createdAt,value
2022-11-08T00:01:44.331Z,100577.20
2022-11-08T00:04:18.472Z,100572.80
2022-11-08T00:07:10.176Z,100575.60
2022-11-08T00:10:01.027Z,100574.00
2022-11-08T00:12:51.881Z,100571.40
2022-11-08T00:15:25.614Z,100578.60
2022-11-08T01:40:12.622Z,100555.40
2022-11-08T01:42:46.293Z,100560.80
2022-11-08T01:45:56.970Z,100547.60
2022-11-08T01:48:29.991Z,100562.40
2022-11-08T01:51:03.571Z,100561.00
2022-11-08T01:53:37.473Z,100561.80
2022-11-08T01:56:11.196Z,100564.20
2022-11-08T01:58:44.267Z,100563.20
2022-11-08T02:01:18.252Z,100564.40
2022-11-08T02:03:51.316Z,100566.40
2022-11-08T02:06:24.373Z,100565.60
2022-11-08T02:08:57.763Z,100569.20
2022-11-08T02:11:30.882Z,100562.80
2022-11-08T02:14:04.235Z,100560.20
2022-11-08T02:16:37.347Z,100564.20
2022-11-08T02:19:13.446Z,100560.80
2022-11-08T02:21:48.559Z,100562.60
2022-11-08T02:24:22.170Z,100566.80
2022-11-08T02:26:55.659Z,100564.60
2022-11-08T02:29:31.777Z,100566.20
2022-11-08T02:32:05.726Z,100558.60
2022-11-08T02:34:42.976Z,100554.80
2022-11-08T02:37:16.132Z,100560.80
2022-11-08T02:39:49.477Z,100554.60
2022-11-08T02:42:24.272Z,100555.80
2022-11-08T02:44:57.225Z,100563.40
2022-11-08T02:47:30.214Z,100556.20
2022-11-08T02:50:03.068Z,100559.80
2022-11-08T02:52:36.651Z,100555.00
2022-11-08T02:55:11.165Z,100551.60
2022-11-08T02:57:44.358Z,100557.40
2022-11-08T03:00:19.385Z,100549.80
2022-11-08T03:02:54.873Z,100559.60
2022-11-08T03:05:28.956Z,100560.20
2022-11-08T03:08:01.809Z,100565.40
2022-11-08T03:10:34.710Z,100554.20
2022-11-08T03:13:08.200Z,100559.80
2022-11-08T03:15:41.097Z,100565.60
2022-11-08T03:18:14.660Z,100559.60
2022-11-08T03:20:48.588Z,100566.00
2022-11-08T03:23:21.983Z,100562.60
2022-11-08T03:25:55.175Z,100565.20
2022-11-08T03:28:28.343Z,100561.00
2022-11-08T03:31:01.844Z,100562.00
2022-11-08T03:33:34.628Z,100561.00
2022-11-08T03:36:08.425Z,100560.00
2022-11-08T03:38:41.184Z,100561.40
2022-11-08T03:41:14.058Z,100555.80
2022-11-08T03:43:46.965Z,100561.40
2022-11-08T03:46:19.974Z,100570.40
2022-11-08T03:48:53.040Z,100572.60
2022-11-08T03:51:25.939Z,100576.40
2022-11-08T03:53:59.321Z,100578.00
2022-11-08T03:56:32.285Z,100573.20
2022-11-08T03:59:05.334Z,100575.60
2022-11-08T04:01:38.393Z,100578.80
2022-11-08T04:04:11.575Z,100579.40
2022-11-08T04:06:44.493Z,100577.40
2022-11-08T04:09:21.276Z,100571.00
2022-11-08T04:12:12.472Z,100571.00
2022-11-08T04:15:03.013Z,100571.40
2022-11-08T04:17:50.003Z,100574.80
2022-11-08T04:20:40.973Z,100569.60
2022-11-08T04:23:14.345Z,100560.80
2022-11-08T04:25:47.457Z,100572.20
2022-11-08T04:28:21.350Z,100569.80
2022-11-08T04:30:59.277Z,100558.40
2022-11-08T04:33:32.584Z,100560.00
2022-11-08T04:36:11.675Z,100560.00
2022-11-08T04:38:44.766Z,100556.60
2022-11-08T04:41:22.318Z,100554.80
2022-11-08T04:43:56.103Z,100557.00
2022-11-08T04:46:30.629Z,100555.60
2022-11-08T04:49:04.058Z,100563.40
2022-11-08T04:51:37.506Z,100551.00
2022-11-08T04:54:12.485Z,100552.20
2022-11-08T04:56:46.115Z,100552.80
2022-11-08T04:59:19.204Z,100559.20
2022-11-08T05:01:52.436Z,100562.80
2022-11-08T05:04:26.210Z,100562.20
2022-11-08T05:06:59.526Z,100565.80
2022-11-08T05:09:32.476Z,100561.20
2022-11-08T05:12:05.483Z,100564.80
2022-11-08T05:14:38.445Z,100562.20
2022-11-08T05:17:11.851Z,100567.00
2022-11-08T05:20:02.034Z,100561.80
2022-11-08T05:22:52.881Z,100558.60
2022-11-08T05:25:26.304Z,100555.60
2022-11-08T05:27:59.616Z,100561.00
2022-11-08T05:30:32.908Z,100572.40
2022-11-08T05:33:06.173Z,100573.60
2022-11-08T05:35:39.260Z,100572.80
2022-11-08T05:38:12.489Z,100566.80
2022-11-08T05:40:46.698Z,100569.80
2022-11-08T05:43:20.310Z,100580.80
2022-11-08T05:45:53.859Z,100583.00
2022-11-08T05:48:27.439Z,100594.40
2022-11-08T05:51:00.306Z,100587.00
2022-11-08T05:53:34.090Z,100587.40
2022-11-08T05:56:08.733Z,100592.20
2022-11-08T05:58:42.477Z,100590.40
2022-11-08T06:01:17.458Z,100587.00
2022-11-08T06:03:51.003Z,100581.60
2022-11-08T06:06:24.774Z,100586.60
2022-11-08T06:08:57.814Z,100590.20
2022-11-08T06:11:31.465Z,100587.00
2022-11-08T06:14:07.039Z,100595.40
2022-11-08T06:16:40.551Z,100597.00
2022-11-08T06:19:16.236Z,100597.60
2022-11-08T06:21:49.114Z,100596.40
2022-11-08T06:24:22.828Z,100597.20
2022-11-08T06:26:56.008Z,100596.40
2022-11-08T06:29:29.396Z,100606.40
2022-11-08T06:32:02.705Z,100608.60
2022-11-08T06:34:36.398Z,100605.40
2022-11-08T06:37:10.431Z,100607.40
2022-11-08T06:39:44.943Z,100611.40
2022-11-08T06:42:18.653Z,100611.00
2022-11-08T06:44:51.814Z,100615.40
2022-11-08T06:47:25.788Z,100619.60
2022-11-08T06:49:59.103Z,100620.80
2022-11-08T06:52:32.709Z,100623.40
2022-11-08T06:55:07.129Z,100622.40
2022-11-08T06:57:40.578Z,100618.20
2022-11-08T07:00:17.095Z,100627.60
2022-11-08T07:02:55.167Z,100627.60
2022-11-08T07:05:29.474Z,100635.80
2022-11-08T07:08:03.707Z,100637.40
2022-11-08T07:10:37.880Z,100637.40
2022-11-08T07:13:13.592Z,100631.80
2022-11-08T07:15:49.608Z,100639.40
2022-11-08T07:18:23.380Z,100639.00
2022-11-08T07:20:59.285Z,100640.60
2022-11-08T07:23:32.595Z,100636.00
2022-11-08T07:26:10.520Z,100639.40
2022-11-08T07:28:44.498Z,100642.60
2022-11-08T07:31:17.717Z,100635.80
2022-11-08T07:33:51.247Z,100636.00
2022-11-08T07:36:24.836Z,100643.00
2022-11-08T07:39:00.180Z,100641.80
2022-11-08T07:41:37.521Z,100642.80
2022-11-08T07:44:11.029Z,100648.00
2022-11-08T07:46:44.748Z,100648.20
2022-11-08T07:49:18.128Z,100648.00
2022-11-08T07:51:52.079Z,100649.40
2022-11-08T07:54:25.804Z,100639.60
2022-11-08T07:56:58.931Z,100651.40
2022-11-08T07:59:32.761Z,100644.20
2022-11-08T08:02:06.060Z,100645.00
2022-11-08T08:04:40.398Z,100648.60
2022-11-08T08:07:13.858Z,100639.80
2022-11-08T08:09:47.560Z,100639.60
2022-11-08T08:12:21.232Z,100642.80
2022-11-08T08:14:54.446Z,100646.80
2022-11-08T08:17:28.843Z,100649.00
2022-11-08T08:20:02.366Z,100641.60
2022-11-08T08:22:35.955Z,100639.20
2022-11-08T08:25:11.220Z,100643.00
2022-11-08T08:27:49.442Z,100641.40
2022-11-08T08:30:24.600Z,100642.00
2022-11-08T08:33:28.310Z,100640.00
2022-11-08T08:36:02.205Z,100644.40
2022-11-08T08:38:44.105Z,100642.20
2022-11-08T08:41:17.749Z,100643.20
2022-11-08T08:43:50.664Z,100634.60
2022-11-08T08:46:23.569Z,100642.80
2022-11-08T08:48:56.804Z,100651.60
2022-11-08T08:51:30.059Z,100644.00
2022-11-08T08:54:03.244Z,100651.20
2022-11-08T08:56:36.832Z,100652.20
2022-11-08T09:02:03.807Z,100650.00
2022-11-08T09:04:39.508Z,100647.00
2022-11-08T09:07:13.329Z,100650.20
2022-11-08T09:09:46.581Z,100649.80
2022-11-08T09:12:20.681Z,100649.20
2022-11-08T09:14:56.839Z,100654.40
2022-11-08T09:17:31.392Z,100650.60
2022-11-08T09:20:05.160Z,100647.80
2022-11-08T09:22:39.182Z,100649.40
2022-11-08T09:25:14.145Z,100651.00
2022-11-08T09:27:49.237Z,100650.60
2022-11-08T09:30:22.521Z,100657.20
2022-11-08T09:33:01.721Z,100656.80
2022-11-08T09:35:35.777Z,100657.20
2022-11-08T09:38:09.147Z,100660.40
2022-11-08T09:40:49.260Z,100661.00
2022-11-08T09:43:35.885Z,100660.00
2022-11-08T09:46:11.836Z,100658.60
2022-11-08T09:48:49.112Z,100660.40
2022-11-08T09:51:24.721Z,100658.20
2022-11-08T09:53:59.688Z,100657.20
2022-11-08T09:56:34.087Z,100665.00
2022-11-08T09:59:14.788Z,100653.00
2022-11-08T10:01:49.088Z,100654.60
2022-11-08T10:04:25.291Z,100650.80
2022-11-08T10:07:20.558Z,100658.40
2022-11-08T10:10:32.245Z,100659.00
2022-11-08T10:13:13.038Z,100649.80
2022-11-08T10:15:50.629Z,100649.00
2022-11-08T10:18:53.505Z,100651.80
2022-11-08T10:21:47.957Z,100648.00
2022-11-08T10:24:27.133Z,100644.60
2022-11-08T10:27:00.656Z,100644.00
2022-11-08T10:29:36.906Z,100645.20
2022-11-08T10:32:16.362Z,100636.60
2022-11-08T10:34:53.664Z,100639.80
2022-11-08T10:37:27.111Z,100641.20
2022-11-08T10:40:05.226Z,100642.60
2022-11-08T10:42:44.288Z,100631.80
2022-11-08T10:45:18.283Z,100634.20
2022-11-08T10:47:52.050Z,100639.20
2022-11-08T10:50:31.810Z,100637.80
2022-11-08T10:53:05.196Z,100632.80
2022-11-08T10:55:39.316Z,100630.80
2022-11-08T10:58:34.289Z,100633.60
2022-11-08T11:01:15.252Z,100621.20
2022-11-08T11:03:48.824Z,100619.40
2022-11-08T11:06:31.097Z,100621.80
2022-11-08T11:09:21.223Z,100620.80
2022-11-08T11:12:01.247Z,100615.60
2022-11-08T11:14:34.471Z,100610.00
2022-11-08T11:17:14.205Z,100615.00
2022-11-08T11:19:56.763Z,100615.80
2022-11-08T11:22:33.125Z,100615.20
2022-11-08T11:25:18.246Z,100613.00
2022-11-08T11:27:56.305Z,100604.60
2022-11-08T11:30:42.670Z,100602.20
2022-11-08T11:33:27.791Z,100609.80
2022-11-08T11:36:08.089Z,100615.80
2022-11-08T11:38:45.885Z,100612.20
2022-11-08T11:41:22.757Z,100609.00
2022-11-08T11:44:02.731Z,100612.40
2022-11-08T11:46:41.667Z,100609.20
2022-11-08T11:49:21.036Z,100616.40
2022-11-08T11:51:56.534Z,100608.60
2022-11-08T11:54:36.579Z,100607.00
2022-11-08T11:57:12.650Z,100611.00
2022-11-08T12:00:01.420Z,100606.00
2022-11-08T12:03:01.581Z,100606.00
2022-11-08T12:05:42.981Z,100596.00
2022-11-08T12:08:28.997Z,100600.00
2022-11-08T12:11:19.390Z,100600.40
2022-11-08T12:14:06.058Z,100609.00
2022-11-08T12:16:44.163Z,100610.40
2022-11-08T12:19:34.838Z,100603.40
2022-11-08T12:22:21.657Z,100598.40
2022-11-08T12:25:00.273Z,100599.60
2022-11-08T12:27:40.794Z,100602.20
2022-11-08T12:30:16.602Z,100597.00
2022-11-08T12:33:18.786Z,100590.00
2022-11-08T12:36:04.035Z,100587.60
2022-11-08T12:38:42.543Z,100586.80
2022-11-08T12:41:21.192Z,100591.80
2022-11-08T12:44:17.715Z,100587.60
2022-11-08T12:47:02.472Z,100585.20
2022-11-08T12:49:40.551Z,100595.20
2022-11-08T12:52:23.468Z,100588.40
2022-11-08T12:55:02.117Z,100572.40
2022-11-08T12:57:35.474Z,100579.00
2022-11-08T13:00:17.078Z,100579.60
2022-11-08T13:02:57.700Z,100582.20
2022-11-08T13:05:33.615Z,100591.00
2022-11-08T13:08:12.665Z,100584.60
2022-11-08T13:11:00.950Z,100588.00
2022-11-08T13:13:39.390Z,100578.40
2022-11-08T13:16:18.454Z,100576.00
2022-11-08T13:18:53.408Z,100570.20
2022-11-08T13:21:44.388Z,100567.00
2022-11-08T13:24:45.678Z,100566.40
2022-11-08T13:27:36.345Z,100569.60
2022-11-08T13:30:42.507Z,100574.40
2022-11-08T13:33:27.102Z,100567.00
2022-11-08T13:36:11.976Z,100561.60
2022-11-08T13:38:52.617Z,100563.60
2022-11-08T13:41:28.606Z,100560.80
2022-11-08T13:44:02.556Z,100556.40
2022-11-08T13:46:54.556Z,100554.00
2022-11-08T13:49:28.062Z,100554.20
2022-11-08T13:52:48.300Z,100547.80
2022-11-08T13:55:51.373Z,100549.40
2022-11-08T13:58:40.810Z,100558.20
2022-11-08T14:01:52.347Z,100554.40
2022-11-08T14:04:35.140Z,100556.40
2022-11-08T14:07:12.614Z,100554.60
2022-11-08T14:09:50.994Z,100559.40
2022-11-08T14:12:28.512Z,100554.00
2022-11-08T14:15:08.079Z,100554.80
2022-11-08T14:17:46.980Z,100557.80
2022-11-08T14:20:38.391Z,100552.20
2022-11-08T14:23:24.957Z,100549.20
2022-11-08T14:25:59.293Z,100552.20
2022-11-08T14:28:34.736Z,100547.20
2022-11-08T14:31:09.997Z,100548.80
2022-11-08T14:33:47.577Z,100551.00
2022-11-08T14:36:22.054Z,100555.60
2022-11-08T14:39:00.941Z,100560.40
2022-11-08T14:41:36.153Z,100560.60
2022-11-08T14:44:15.724Z,100562.20
2022-11-08T14:46:49.169Z,100567.20
2022-11-08T14:49:31.519Z,100562.60
2022-11-08T14:52:26.727Z,100559.40
2022-11-08T14:55:12.580Z,100574.40
2022-11-08T14:57:46.519Z,100572.00
2022-11-08T15:00:24.748Z,100564.80
2022-11-08T15:03:01.187Z,100567.60
2022-11-08T15:05:42.671Z,100565.20
2022-11-08T15:08:25.101Z,100562.00
2022-11-08T15:11:02.895Z,100557.20
2022-11-08T15:13:45.544Z,100552.20
2022-11-08T15:16:19.656Z,100554.20
2022-11-08T15:18:53.595Z,100555.00
2022-11-08T15:21:33.608Z,100559.20
2022-11-08T15:24:18.794Z,100560.40
2022-11-08T15:27:17.560Z,100556.40
2022-11-08T15:30:03.541Z,100550.40
2022-11-08T15:32:42.512Z,100543.00
2022-11-08T15:35:28.666Z,100542.80
2022-11-08T15:38:08.384Z,100544.60
2022-11-08T15:40:49.686Z,100544.80
2022-11-08T15:43:43.977Z,100539.80
2022-11-08T15:46:38.568Z,100548.00
2022-11-08T15:49:22.226Z,100538.00
2022-11-08T15:51:58.905Z,100543.20
2022-11-08T15:54:33.390Z,100540.20
2022-11-08T15:57:07.136Z,100537.60
2022-11-08T15:59:40.439Z,100535.60
2022-11-08T16:02:23.485Z,100536.80
2022-11-08T16:04:57.125Z,100542.40
2022-11-08T16:07:31.137Z,100536.60
2022-11-08T16:10:04.967Z,100539.20
2022-11-08T16:12:39.385Z,100535.40
2022-11-08T16:15:16.721Z,100534.20
2022-11-08T16:17:50.296Z,100534.60
2022-11-08T16:20:33.808Z,100530.00
2022-11-08T16:23:11.481Z,100538.40
2022-11-08T16:25:47.676Z,100538.80
2022-11-08T16:28:24.306Z,100542.40
2022-11-08T16:30:58.605Z,100538.80
2022-11-08T16:33:33.536Z,100534.00
2022-11-08T16:36:11.346Z,100539.20
2022-11-08T16:38:44.626Z,100540.60
2022-11-08T16:41:17.882Z,100546.60
2022-11-08T16:43:51.217Z,100541.80
2022-11-08T16:46:25.904Z,100539.80
2022-11-08T16:49:00.794Z,100541.20
2022-11-08T16:51:34.625Z,100538.40
2022-11-08T16:54:10.353Z,100541.80
2022-11-08T16:56:43.666Z,100535.40
2022-11-08T16:59:17.128Z,100539.20
2022-11-08T17:01:51.288Z,100535.80
2022-11-08T17:04:25.016Z,100536.40
2022-11-08T17:06:59.360Z,100534.40
2022-11-08T17:09:32.674Z,100528.80
2022-11-08T17:12:07.604Z,100533.20
2022-11-08T17:14:41.667Z,100531.20
2022-11-08T17:17:16.708Z,100534.40
2022-11-08T17:19:50.546Z,100531.60
2022-11-08T17:22:24.314Z,100532.80
2022-11-08T17:24:57.455Z,100536.40
2022-11-08T17:27:30.864Z,100524.80
2022-11-08T17:30:05.107Z,100525.00
2022-11-08T17:32:38.980Z,100522.20
2022-11-08T17:35:13.928Z,100524.20
2022-11-08T17:37:47.249Z,100529.80
2022-11-08T17:40:22.626Z,100525.60
2022-11-08T17:42:56.306Z,100533.20
2022-11-08T17:45:29.516Z,100536.00
2022-11-08T17:48:04.320Z,100532.20
2022-11-08T17:50:38.157Z,100531.40
2022-11-08T17:53:11.462Z,100532.60
2022-11-08T17:55:45.315Z,100538.20
2022-11-08T17:58:18.568Z,100532.80
2022-11-08T18:00:54.869Z,100535.00
2022-11-08T18:03:28.491Z,100537.60
2022-11-08T18:06:03.103Z,100532.20
2022-11-08T18:08:37.243Z,100530.20
2022-11-08T18:11:11.871Z,100533.40
2022-11-08T18:13:45.173Z,100539.40
2022-11-08T18:16:22.367Z,100538.80
2022-11-08T18:18:57.232Z,100539.40
2022-11-08T18:21:30.599Z,100532.20
2022-11-08T18:24:04.313Z,100532.40
2022-11-08T18:26:37.794Z,100535.80
2022-11-08T18:29:11.706Z,100535.20
2022-11-08T18:31:45.152Z,100535.20
2022-11-08T18:34:18.401Z,100538.40
2022-11-08T18:36:51.682Z,100543.40
2022-11-08T18:39:25.625Z,100533.80
2022-11-08T18:41:59.794Z,100531.20
2022-11-08T18:44:33.084Z,100533.80
2022-11-08T18:47:06.924Z,100524.40
2022-11-08T18:49:40.724Z,100526.20
2022-11-08T18:52:14.203Z,100525.20
2022-11-08T18:54:49.136Z,100518.00
2022-11-08T20:41:26.440Z,100532.80
2022-11-08T20:43:59.916Z,100528.60
2022-11-08T20:46:34.501Z,100531.60
2022-11-08T20:49:08.076Z,100534.80
2022-11-08T20:51:41.648Z,100533.40
2022-11-08T20:54:16.918Z,100531.40
2022-11-08T20:56:50.585Z,100535.80
2022-11-08T20:59:23.792Z,100531.60
2022-11-08T21:01:57.280Z,100524.40
2022-11-08T21:04:30.373Z,100527.80
2022-11-08T21:08:01.268Z,100530.00
2022-11-08T21:10:20.218Z,100530.80
2022-11-08T21:12:53.037Z,100526.80
2022-11-08T21:15:27.462Z,100527.60
2022-11-08T21:18:01.071Z,100524.80
2022-11-08T21:20:34.844Z,100518.60
2022-11-08T21:23:08.699Z,100525.80
2022-11-08T21:25:42.278Z,100525.40
2022-11-08T21:28:16.265Z,100520.40
2022-11-08T21:30:50.318Z,100527.20
2022-11-08T21:33:25.047Z,100520.20
2022-11-08T21:36:00.887Z,100520.40
2022-11-08T21:38:36.840Z,100520.60
2022-11-08T21:41:11.759Z,100516.60
2022-11-08T21:43:46.424Z,100520.20
2022-11-08T21:46:25.246Z,100524.80
2022-11-08T21:49:00.964Z,100520.20
2022-11-08T21:51:34.452Z,100523.00
2022-11-08T21:54:08.197Z,100523.60
2022-11-08T21:56:42.206Z,100521.80
2022-11-08T21:59:17.324Z,100519.00
2022-11-08T22:01:50.699Z,100516.80
2022-11-08T22:04:26.612Z,100518.60
2022-11-08T22:07:00.079Z,100520.20
2022-11-08T22:09:33.585Z,100517.80
2022-11-08T22:12:07.397Z,100526.80
2022-11-08T22:14:41.374Z,100521.80
2022-11-08T22:17:14.669Z,100523.20
2022-11-08T22:19:48.253Z,100518.60
2022-11-08T22:22:22.142Z,100522.40
2022-11-08T22:24:56.100Z,100511.00
2022-11-08T22:27:30.030Z,100518.40
2022-11-08T22:30:03.724Z,100518.60
2022-11-08T22:32:38.554Z,100524.80
2022-11-08T22:35:13.455Z,100522.40
2022-11-08T22:37:47.904Z,100519.60
2022-11-08T22:40:22.334Z,100523.00
2022-11-08T22:42:55.961Z,100536.00
2022-11-08T22:45:29.636Z,100534.60
2022-11-08T22:48:02.955Z,100525.80
2022-11-08T22:50:37.071Z,100527.00
2022-11-08T22:53:10.475Z,100523.40
2022-11-08T22:55:43.888Z,100520.00
2022-11-08T22:58:17.663Z,100523.00
2022-11-08T23:00:52.720Z,100520.60
2022-11-08T23:03:26.339Z,100512.80
2022-11-08T23:06:00.621Z,100511.00
2022-11-08T23:08:34.091Z,100511.40
2022-11-08T23:11:25.330Z,100519.60
2022-11-08T23:14:17.206Z,100515.80
2022-11-08T23:16:51.195Z,100506.00
2022-11-08T23:19:56.620Z,100507.60
2022-11-08T23:22:47.880Z,100499.00
2022-11-08T23:25:23.262Z,100502.00
2022-11-08T23:28:19.695Z,100503.00
2022-11-08T23:31:10.625Z,100507.40
2022-11-08T23:33:50.024Z,100512.60
2022-11-08T23:36:23.747Z,100507.20
2022-11-08T23:39:00.335Z,100499.80
2022-11-08T23:41:53.739Z,100506.20
2022-11-08T23:44:28.137Z,100505.00
2022-11-08T23:47:04.473Z,100509.20
2022-11-08T23:49:39.189Z,100508.00
2022-11-08T23:52:12.774Z,100505.40
2022-11-08T23:54:45.941Z,100501.20
2022-11-08T23:57:19.559Z,100503.20
2022-11-08T23:59:54.443Z,100500.20
